Time;durP1;ratioP1;P1;durP2;ratioP2;P2;SDS_P1;SDS_P2;PMS_P1;PMS_P2;Temp;Humidity;BMP_temperature;BMP_pressure;BME280_temperature;BME280_humidity;BME280_pressure;Samples;Min_cycle;Max_cycle;Signal;HPM_P1;HPM_P2
2021/10/14 00:01:40;;;;;;;1.25;1.00;;;;;;;8.93;100.00;102001.88;6296264;28;20055;-73
2021/10/14 00:04:43;;;;;;;1.52;1.10;;;;;;;8.94;100.00;102000.97;6296119;28;20537;-72
2021/10/14 00:07:44;;;;;;;3.60;1.63;;;;;;;8.96;100.00;102004.41;6296259;28;20047;-73
2021/10/14 00:10:46;;;;;;;1.42;1.08;;;;;;;8.95;100.00;102004.44;6296373;28;20053;-72
2021/10/14 00:13:47;;;;;;;4.00;1.35;;;;;;;8.95;100.00;102014.94;6295985;28;20484;-73
2021/10/14 00:16:48;;;;;;;2.58;1.38;;;;;;;8.94;100.00;102008.81;6297737;28;20052;-72
2021/10/14 00:19:51;;;;;;;2.55;1.33;;;;;;;8.95;100.00;101999.19;6300910;28;20589;-73
2021/10/14 00:22:52;;;;;;;4.90;1.77;;;;;;;8.94;100.00;101995.72;6301135;28;20414;-73
2021/10/14 00:25:54;;;;;;;3.40;1.67;;;;;;;8.97;100.00;101989.53;6300827;28;20048;-73
2021/10/14 00:28:55;;;;;;;2.70;1.38;;;;;;;8.95;100.00;101981.72;6301047;28;20044;-71
2021/10/14 00:31:56;;;;;;;3.97;1.58;;;;;;;8.95;100.00;101984.34;6300616;28;20052;-72
2021/10/14 00:34:59;;;;;;;2.00;1.42;;;;;;;8.98;100.00;101978.16;6300688;28;20051;-73
2021/10/14 00:38:00;;;;;;;6.13;2.25;;;;;;;8.97;100.00;101984.31;6300781;28;20538;-73
2021/10/14 00:41:02;;;;;;;1.83;1.38;;;;;;;8.98;100.00;101986.88;6300835;28;20060;-73
2021/10/14 00:44:04;;;;;;;3.42;1.85;;;;;;;9.00;100.00;101982.47;6300634;28;20048;-71
2021/10/14 00:47:05;;;;;;;3.40;1.52;;;;;;;9.01;100.00;101978.09;6300377;28;20045;-73
2021/10/14 00:50:10;;;;;;;2.42;1.90;;;;;;;9.03;100.00;101984.13;6300450;28;20045;-73
2021/10/14 00:53:11;;;;;;;3.30;1.75;;;;;;;9.02;100.00;101980.66;6300498;28;20044;-73
2021/10/14 00:56:15;;;;;;;11.70;1.67;;;;;;;9.05;100.00;101982.34;6300176;28;20049;-73
2021/10/14 00:59:17;;;;;;;3.42;2.50;;;;;;;9.06;100.00;101987.53;6300494;28;20483;-73
2021/10/14 01:02:19;;;;;;;3.78;1.85;;;;;;;9.09;100.00;101981.38;6300197;28;20110;-73
2021/10/14 01:05:22;;;;;;;2.95;1.67;;;;;;;9.09;100.00;101981.38;6300014;28;20052;-73
2021/10/14 01:08:23;;;;;;;4.55;1.67;;;;;;;9.10;100.00;101972.59;6300237;28;20048;-73
2021/10/14 01:11:26;;;;;;;6.82;2.58;;;;;;;9.09;100.00;101971.72;6300182;28;20052;-73
2021/10/14 01:14:27;;;;;;;4.63;2.65;;;;;;;9.16;100.00;101975.03;6299710;28;20060;-73
2021/10/14 01:17:29;;;;;;;6.05;2.30;;;;;;;9.14;100.00;101972.47;6300065;28;20049;-73
2021/10/14 01:20:31;;;;;;;5.10;2.38;;;;;;;9.13;100.00;101970.75;6299116;28;20531;-73
2021/10/14 01:23:33;;;;;;;5.80;2.72;;;;;;;9.13;100.00;101969.88;6299475;28;20059;-73
2021/10/14 01:26:34;;;;;;;8.18;2.45;;;;;;;9.12;100.00;101971.63;6297889;22;20052;-74
2021/10/14 01:29:36;;;;;;;6.80;2.15;;;;;;;9.14;100.00;101964.59;6271711;28;20484;-74
2021/10/14 01:32:38;;;;;;;4.78;2.40;;;;;;;9.17;100.00;101965.41;6250102;28;20129;-74
2021/10/14 01:35:40;;;;;;;3.08;2.05;;;;;;;9.17;100.00;101966.25;6274570;28;20049;-74
2021/10/14 01:38:42;;;;;;;6.15;3.05;;;;;;;9.21;100.00;101967.03;6299622;28;20048;-74
2021/10/14 01:41:44;;;;;;;5.72;2.25;;;;;;;9.23;100.00;101965.25;6299347;28;20071;-74
2021/10/14 01:44:46;;;;;;;3.53;2.28;;;;;;;9.24;100.00;101965.19;6299309;28;20477;-74
2021/10/14 01:47:47;;;;;;;5.03;2.83;;;;;;;9.28;100.00;101964.19;6299183;28;20431;-74
2021/10/14 01:50:50;;;;;;;4.47;2.47;;;;;;;9.25;100.00;101966.03;6298728;28;20055;-74
2021/10/14 01:53:51;;;;;;;4.50;2.90;;;;;;;9.27;100.00;101967.75;6298906;28;20056;-75
2021/10/14 01:56:52;;;;;;;5.22;2.63;;;;;;;9.27;100.00;101961.63;6298750;28;20048;-74
2021/10/14 01:59:54;;;;;;;11.68;3.22;;;;;;;9.31;100.00;101956.25;6299110;28;20511;-74
2021/10/14 02:02:55;;;;;;;4.90;2.47;;;;;;;9.30;100.00;101958.91;6299013;28;20044;-75
2021/10/14 02:05:58;;;;;;;4.72;2.55;;;;;;;9.30;100.00;101964.16;6298175;28;20408;-75
2021/10/14 02:08:59;;;;;;;3.75;2.63;;;;;;;9.31;100.00;101965.84;6298699;28;20048;-75
2021/10/14 02:12:00;;;;;;;7.18;2.85;;;;;;;9.32;100.00;101960.59;6298609;28;20056;-74
2021/10/14 02:15:02;;;;;;;7.45;2.85;;;;;;;9.32;100.00;101965.84;6298525;28;20439;-74
2021/10/14 02:18:04;;;;;;;7.72;2.88;;;;;;;9.33;100.00;101956.19;6298669;28;20048;-74
2021/10/14 02:21:06;;;;;;;9.50;3.20;;;;;;;9.35;100.00;101957.00;6298397;28;20060;-74
2021/10/14 02:24:08;;;;;;;6.40;3.17;;;;;;;9.40;100.00;101955.09;6298024;28;20064;-75
2021/10/14 02:27:09;;;;;;;7.72;2.40;;;;;;;9.38;100.00;101959.56;6292329;28;20052;-74
2021/10/14 02:30:12;;;;;;;5.88;2.70;;;;;;;9.36;100.00;101966.63;6273320;28;20049;-74
2021/10/14 02:33:13;;;;;;;10.43;3.10;;;;;;;9.39;100.00;101959.50;6273394;28;20056;-74
2021/10/14 02:36:16;;;;;;;8.07;3.63;;;;;;;9.39;100.00;101962.13;6272894;28;20420;-74
2021/10/14 02:39:17;;;;;;;5.68;3.05;;;;;;;9.44;100.00;101963.75;6272765;28;20044;-74
2021/10/14 02:42:19;;;;;;;4.68;2.80;;;;;;;9.45;100.00;101963.72;6273009;28;20072;-74
2021/10/14 02:45:20;;;;;;;5.97;3.08;;;;;;;9.45;100.00;101957.59;6279824;28;20049;-75
2021/10/14 02:48:21;;;;;;;4.88;2.80;;;;;;;9.45;100.00;101949.72;6297717;28;20419;-74
2021/10/14 02:51:24;;;;;;;6.55;3.33;;;;;;;9.44;100.00;101954.09;6297814;28;20049;-74
2021/10/14 02:54:25;;;;;;;7.10;3.58;;;;;;;9.46;100.00;101957.56;6297731;28;20049;-74
2021/10/14 02:57:27;;;;;;;6.50;3.03;;;;;;;9.47;100.00;101954.03;6297617;28;20052;-74
2021/10/14 03:00:28;;;;;;;6.53;3.15;;;;;;;9.51;100.00;101962.69;6297826;28;20056;-74
2021/10/14 03:03:29;;;;;;;7.45;3.40;;;;;;;9.49;100.00;101954.84;6297144;28;20499;-74
2021/10/14 03:06:32;;;;;;;5.32;3.38;;;;;;;9.53;100.00;101959.09;6297505;28;20051;-75
2021/10/14 03:09:33;;;;;;;11.70;3.70;;;;;;;9.57;100.00;101963.34;6297274;28;20530;-74
2021/10/14 03:12:35;;;;;;;7.45;3.10;;;;;;;9.60;100.00;101957.16;6296500;28;20048;-74
2021/10/14 03:15:37;;;;;;;6.63;3.80;;;;;;;9.63;100.00;101955.31;6296965;28;20052;-74
2021/10/14 03:18:38;;;;;;;4.97;3.15;;;;;;;9.60;100.00;101946.66;6296976;28;20511;-74
2021/10/14 03:21:41;;;;;;;5.35;3.13;;;;;;;9.65;100.00;101958.72;6297050;28;20055;-74
2021/10/14 03:24:42;;;;;;;6.78;3.03;;;;;;;9.64;100.00;101953.53;6296840;28;20045;-74
2021/10/14 03:27:44;;;;;;;5.80;3.25;;;;;;;9.64;100.00;101951.78;6296647;28;20044;-75
2021/10/14 03:30:45;;;;;;;11.98;6.40;;;;;;;9.68;100.00;101954.31;6296822;28;20052;-75
2021/10/14 03:33:46;;;;;;;8.63;4.93;;;;;;;9.62;100.00;101953.56;6296669;28;20048;-74
2021/10/14 03:36:49;;;;;;;5.60;3.58;;;;;;;9.62;100.00;101952.72;6296608;28;20052;-74
2021/10/14 03:39:50;;;;;;;6.05;3.50;;;;;;;9.60;100.00;101946.66;6295017;28;20048;-75
2021/10/14 03:42:51;;;;;;;9.07;3.40;;;;;;;9.64;100.00;101948.28;6296616;28;20048;-75
2021/10/14 03:45:53;;;;;;;7.93;3.95;;;;;;;9.58;100.00;101948.44;6296375;28;20145;-74
2021/10/14 03:48:55;;;;;;;8.68;3.97;;;;;;;9.59;100.00;101947.56;6296601;28;20060;-75
2021/10/14 03:51:57;;;;;;;8.93;4.50;;;;;;;9.59;100.00;101945.81;6295914;28;20510;-75
2021/10/14 03:54:59;;;;;;;9.52;3.88;;;;;;;9.62;100.00;101950.09;6296175;28;20048;-74
2021/10/14 03:58:00;;;;;;;7.78;3.63;;;;;;;9.61;100.00;101949.22;6296616;28;20041;-75
2021/10/14 04:01:01;;;;;;;7.15;3.53;;;;;;;9.60;100.00;101952.78;6296438;28;20637;-74
2021/10/14 04:04:03;;;;;;;6.88;3.58;;;;;;;9.62;100.00;101957.97;6292679;28;20418;-75
2021/10/14 04:07:06;;;;;;;7.18;4.18;;;;;;;9.64;100.00;101953.53;6271564;28;20048;-75
2021/10/14 04:10:08;;;;;;;9.52;4.55;;;;;;;9.68;100.00;101964.81;6271370;28;20511;-74
2021/10/14 04:13:09;;;;;;;14.23;4.82;;;;;;;9.70;100.00;101963.84;6287379;28;20045;-74
2021/10/14 04:16:11;;;;;;;11.48;5.00;;;;;;;9.73;100.00;101958.50;6287575;28;20056;-75
2021/10/14 04:19:12;;;;;;;10.10;4.97;;;;;;;9.71;100.00;101952.44;6296089;28;20071;-75
2021/10/14 04:22:15;;;;;;;8.60;4.53;;;;;;;9.74;100.00;101960.22;6285464;28;20044;-75
2021/10/14 04:25:16;;;;;;;10.82;5.25;;;;;;;9.76;100.00;101961.03;6270763;28;20447;-75
2021/10/14 04:28:17;;;;;;;7.97;4.07;;;;;;;9.75;100.00;101955.84;6276411;28;20446;-75
2021/10/14 04:31:19;;;;;;;12.88;5.15;;;;;;;9.79;100.00;101953.06;6279376;28;20429;-74
2021/10/14 04:34:21;;;;;;;9.43;4.55;;;;;;;9.78;100.00;101951.34;6281874;28;20051;-74
2021/10/14 04:37:24;;;;;;;10.10;4.90;;;;;;;9.80;100.00;101948.66;6271213;28;20045;-74
2021/10/14 04:40:25;;;;;;;8.82;4.18;;;;;;;9.81;100.00;101953.91;6273571;28;20427;-74
2021/10/14 04:43:26;;;;;;;9.63;4.47;;;;;;;9.82;100.00;101947.72;6283576;28;20060;-75
2021/10/14 04:46:28;;;;;;;7.95;4.10;;;;;;;9.90;100.00;101944.84;6290053;28;20048;-75
2021/10/14 04:49:29;;;;;;;12.65;4.88;;;;;;;9.87;100.00;101943.19;6292187;28;20052;-75
2021/10/14 04:52:32;;;;;;;8.90;3.95;;;;;;;9.97;100.00;101946.38;6295851;28;20060;-75
2021/10/14 04:55:34;;;;;;;16.88;5.05;;;;;;;9.95;100.00;101945.59;6290199;28;20514;-75
2021/10/14 04:58:35;;;;;;;6.07;3.20;;;;;;;9.91;100.00;101950.06;6291702;28;20052;-74
2021/10/14 05:01:36;;;;;;;7.03;4.07;;;;;;;9.91;100.00;101939.56;6295592;28;20052;-75
2021/10/14 05:04:38;;;;;;;9.50;4.88;;;;;;;9.96;100.00;101944.66;6287870;28;20052;-75
2021/10/14 05:07:40;;;;;;;9.48;4.40;;;;;;;9.96;100.00;101936.78;6280557;28;20057;-75
2021/10/14 05:10:42;;;;;;;8.05;4.10;;;;;;;9.97;100.00;101938.50;6275457;28;20048;-74
2021/10/14 05:13:43;;;;;;;13.25;4.75;;;;;;;9.98;100.00;101939.38;6275053;28;20048;-75
2021/10/14 05:16:44;;;;;;;8.18;4.40;;;;;;;9.99;100.00;101944.59;6275373;28;20048;-75
2021/10/14 05:19:46;;;;;;;11.30;5.43;;;;;;;9.99;100.00;101936.72;6275097;28;20056;-75
2021/10/14 05:22:48;;;;;;;12.00;4.82;;;;;;;10.04;100.00;101933.94;6275195;28;20053;-75
2021/10/14 05:25:50;;;;;;;7.47;4.30;;;;;;;10.02;100.00;101925.22;6298931;28;20447;-75
2021/10/14 05:28:51;;;;;;;9.25;5.40;;;;;;;10.04;100.00;101931.31;6299716;28;20044;-75
2021/10/14 05:31:52;;;;;;;10.98;4.60;;;;;;;10.09;100.00;101934.63;6299759;28;20048;-74
2021/10/14 05:34:54;;;;;;;9.68;4.82;;;;;;;10.05;100.00;101923.38;6299626;28;20048;-75
2021/10/14 05:37:57;;;;;;;6.70;3.93;;;;;;;10.05;100.00;101933.03;6299353;28;20419;-75
2021/10/14 05:40:58;;;;;;;10.13;4.70;;;;;;;10.04;100.00;101937.41;6292550;28;20044;-75
2021/10/14 05:44:00;;;;;;;9.13;4.55;;;;;;;10.06;100.00;101935.59;6297226;28;20056;-75
2021/10/14 05:47:01;;;;;;;14.13;5.57;;;;;;;10.07;100.00;101941.69;6299331;28;20048;-75
2021/10/14 05:50:02;;;;;;;10.38;5.05;;;;;;;10.06;100.00;101934.72;6297802;28;20040;-75
2021/10/14 05:53:05;;;;;;;11.05;5.60;;;;;;;10.06;100.00;101935.59;6299036;28;20049;-75
2021/10/14 05:56:06;;;;;;;10.82;5.07;;;;;;;10.10;100.00;101933.72;6298674;28;20415;-75
2021/10/14 05:59:08;;;;;;;11.02;4.88;;;;;;;10.12;100.00;101932.75;6299118;28;20048;-75
2021/10/14 06:02:09;;;;;;;11.27;5.45;;;;;;;10.15;100.00;101937.06;6296920;28;20044;-75
2021/10/14 06:05:11;;;;;;;12.38;6.78;;;;;;;10.15;100.00;101923.94;6275634;28;20053;-76
2021/10/14 06:08:13;;;;;;;11.07;5.50;;;;;;;10.17;100.00;101919.47;6280945;28;20410;-75
2021/10/14 06:11:15;;;;;;;12.55;5.47;;;;;;;10.15;100.00;101916.91;6292843;28;20052;-75
2021/10/14 06:14:16;;;;;;;13.90;6.35;;;;;;;10.20;100.00;101913.25;6297463;28;20426;-75
2021/10/14 06:17:18;;;;;;;11.73;5.05;;;;;;;10.19;100.00;101908.94;6286306;28;20146;-75
2021/10/14 06:20:19;;;;;;;13.65;6.82;;;;;;;10.23;100.00;101923.69;6287922;28;20483;-75
2021/10/14 06:23:22;;;;;;;10.52;5.18;;;;;;;10.24;100.00;101920.13;6298616;28;20048;-74
2021/10/14 06:26:23;;;;;;;13.73;6.05;;;;;;;10.26;100.00;101920.97;6298161;28;20059;-75
2021/10/14 06:29:25;;;;;;;10.88;5.70;;;;;;;10.24;100.00;101928.03;6298244;28;20048;-75
2021/10/14 06:32:26;;;;;;;12.88;5.63;;;;;;;10.29;100.00;101934.88;6298440;28;20060;-74
2021/10/14 06:35:28;;;;;;;9.77;5.05;;;;;;;10.28;100.00;101929.69;6297745;28;20569;-75
2021/10/14 06:38:31;;;;;;;9.18;4.63;;;;;;;10.29;100.00;101928.75;6298149;28;20051;-76
2021/10/14 06:41:32;;;;;;;10.57;5.97;;;;;;;10.42;100.00;101930.06;6286114;28;20064;-75
2021/10/14 06:44:34;;;;;;;16.25;6.10;;;;;;;10.37;100.00;101930.22;6284383;28;20056;-75
2021/10/14 06:47:35;;;;;;;12.57;5.80;;;;;;;10.36;100.00;101932.91;6284869;28;20056;-75
2021/10/14 06:50:37;;;;;;;10.60;5.18;;;;;;;10.36;100.00;101939.03;6285211;28;20052;-75
2021/10/14 06:53:39;;;;;;;12.07;5.18;;;;;;;10.37;100.00;101932.84;6284123;28;20513;-75
2021/10/14 06:56:41;;;;;;;12.27;5.50;;;;;;;10.39;100.00;101933.66;6284608;28;20665;-75
2021/10/14 06:59:42;;;;;;;11.32;5.97;;;;;;;10.38;100.00;101931.06;6282603;28;20041;-76
2021/10/14 07:02:44;;;;;;;12.18;5.00;;;;;;;10.38;100.00;101934.56;6284197;28;20490;-75
2021/10/14 07:05:45;;;;;;;10.40;5.55;;;;;;;10.43;100.00;101925.66;6282569;28;20045;-75
2021/10/14 07:08:47;;;;;;;12.95;5.80;;;;;;;10.50;100.00;101937.72;6283055;28;20419;-75
2021/10/14 07:11:54;;;;;;;12.07;5.88;;;;;;;10.55;100.00;101925.25;6297096;28;20056;-75
2021/10/14 07:14:57;;;;;;;12.88;5.63;;;;;;;10.54;100.00;101926.19;6296680;28;20048;-75
2021/10/14 07:17:58;;;;;;;11.07;5.13;;;;;;;10.49;100.00;101917.56;6297159;28;20406;-75
2021/10/14 07:21:01;;;;;;;15.40;5.90;;;;;;;10.53;100.00;101925.28;6296907;28;20044;-74
2021/10/14 07:24:04;;;;;;;11.43;5.80;;;;;;;10.55;100.00;101917.38;6296916;28;20048;-74
2021/10/14 07:27:07;;;;;;;12.45;5.47;;;;;;;10.60;100.00;101915.44;6304932;22;20055;-73
2021/10/14 07:30:10;;;;;;;11.23;5.90;;;;;;;10.58;100.00;101914.63;6270528;28;20052;-73
2021/10/14 07:33:11;;;;;;;11.43;5.90;;;;;;;10.63;100.00;101924.09;6247465;28;20408;-73
2021/10/14 07:36:12;;;;;;;12.82;6.78;;;;;;;10.65;100.00;101922.25;6261888;28;20413;-72
2021/10/14 07:39:15;;;;;;;14.73;6.40;;;;;;;10.63;100.00;101916.19;6271705;28;20495;-74
2021/10/14 07:42:16;;;;;;;14.32;6.65;;;;;;;10.69;100.00;101925.63;6271849;28;20053;-73
2021/10/14 07:45:18;;;;;;;13.48;6.05;;;;;;;10.65;100.00;101922.25;6268240;28;20071;-73
2021/10/14 07:48:19;;;;;;;14.80;6.53;;;;;;;10.65;100.00;101921.41;6253927;28;20049;-73
2021/10/14 07:51:21;;;;;;;16.65;6.45;;;;;;;10.65;100.00;101914.38;6261903;28;20037;-71
2021/10/14 07:54:23;;;;;;;14.55;6.22;;;;;;;10.74;100.00;101920.22;6268252;28;20049;-72
2021/10/14 07:57:25;;;;;;;11.30;6.03;;;;;;;10.71;100.00;101915.91;6271340;28;20053;-72
2021/10/14 08:00:26;;;;;;;13.85;7.03;;;;;;;10.74;100.00;101928.09;6271648;28;20048;-74
2021/10/14 08:03:27;;;;;;;13.68;5.78;;;;;;;10.74;100.00;101928.97;6270589;28;20048;-73
2021/10/14 08:06:29;;;;;;;17.83;7.35;;;;;;;10.75;100.00;101929.81;6271231;28;20053;-73
2021/10/14 08:09:32;;;;;;;15.05;6.50;;;;;;;10.77;100.00;101928.88;6271095;28;20064;-73
2021/10/14 08:12:33;;;;;;;12.50;6.32;;;;;;;10.75;100.00;101935.94;6271731;28;20056;-73
2021/10/14 08:15:34;;;;;;;12.40;6.88;;;;;;;10.78;100.00;101927.94;6270935;28;20056;-73
2021/10/14 08:18:36;;;;;;;12.90;6.38;;;;;;;10.81;100.00;101929.59;6276852;28;20037;-73
2021/10/14 08:21:37;;;;;;;15.38;6.93;;;;;;;10.77;100.00;101923.59;6282258;28;20051;-74
2021/10/14 08:24:40;;;;;;;14.73;6.78;;;;;;;10.76;100.00;101928.91;6279299;28;20048;-73
2021/10/14 08:27:42;;;;;;;14.13;6.13;;;;;;;10.75;100.00;101922.78;6282191;28;20051;-73
2021/10/14 08:30:45;;;;;;;19.02;7.57;;;;;;;10.80;100.00;101922.63;6275378;28;20052;-74
2021/10/14 08:33:47;;;;;;;14.70;6.68;;;;;;;10.78;100.00;101924.47;6271158;28;20135;-73
2021/10/14 08:36:48;;;;;;;15.48;7.22;;;;;;;10.79;100.00;101919.13;6270703;28;20056;-73
2021/10/14 08:39:52;;;;;;;16.73;7.70;;;;;;;10.77;100.00;101925.38;6276041;28;20045;-73
2021/10/14 08:42:59;;;;;;;15.82;6.50;;;;;;;10.78;100.00;101925.31;6275842;28;20053;-73
2021/10/14 08:46:02;;;;;;;13.35;7.35;;;;;;;10.78;100.00;101922.69;6275808;28;20049;-73
2021/10/14 08:49:08;;;;;;;14.82;7.10;;;;;;;10.81;100.00;101925.22;6275798;28;20042;-73
2021/10/14 08:52:09;;;;;;;14.80;7.20;;;;;;;10.79;100.00;101919.13;6275898;28;20068;-73
2021/10/14 08:55:12;;;;;;;14.23;5.70;;;;;;;10.82;100.00;101926.94;6275045;28;20048;-72
2021/10/14 08:58:14;;;;;;;12.95;5.85;;;;;;;10.82;100.00;101921.66;6271968;28;20048;-73
2021/10/14 09:01:16;;;;;;;12.30;6.50;;;;;;;10.90;100.00;101919.63;6256779;28;20048;-72
2021/10/14 09:04:20;;;;;;;10.95;5.68;;;;;;;10.96;100.00;101923.81;6273230;28;20056;-72
2021/10/14 09:07:23;;;;;;;10.52;5.28;;;;;;;10.91;100.00;101920.47;6275278;28;20127;-72
2021/10/14 09:10:31;;;;;;;11.57;5.43;;;;;;;10.91;100.00;101916.06;6275240;28;20412;-72
2021/10/14 09:13:33;;;;;;;10.57;6.33;;;;;;;10.95;100.00;101921.25;6275032;28;20057;-72
2021/10/14 09:16:36;;;;;;;9.48;4.97;;;;;;;10.96;100.00;101917.69;6275068;28;20098;-74
2021/10/14 09:19:39;;;;;;;15.60;5.00;;;;;;;11.04;100.00;101921.75;6275230;28;20052;-74
2021/10/14 09:22:52;;;;;;;9.05;5.25;;;;;;;11.04;100.00;101918.28;6274663;28;20053;-74
2021/10/14 09:25:55;;;;;;;11.30;5.32;;;;;;;11.18;100.00;101913.34;6274638;28;20053;-74
2021/10/14 09:29:07;;;;;;;9.50;4.75;;;;;;;11.15;100.00;101910.84;6274788;28;20056;-73
2021/10/14 09:32:14;;;;;;;10.98;4.78;;;;;;;11.17;100.00;101909.88;6274099;28;20136;-72
2021/10/14 09:35:24;;;;;;;10.57;4.45;;;;;;;11.27;100.00;101917.44;6268703;28;20060;-72
2021/10/14 09:38:31;;;;;;;10.10;4.80;;;;;;;11.26;100.00;101913.06;6274487;28;20045;-71
2021/10/14 09:41:38;;;;;;;13.00;5.30;;;;;;;11.32;100.00;101910.22;6269194;28;20044;-71
2021/10/14 09:44:49;;;;;;;9.13;4.40;;;;;;;11.38;100.00;101908.19;6273280;28;20051;-73
2021/10/14 09:48:08;;;;;;;9.63;4.35;;;;;;;11.54;100.00;101912.88;6273568;28;20052;-72
2021/10/14 09:51:10;;;;;;;7.28;3.85;;;;;;;11.68;100.00;101895.63;6272969;28;20048;-72
2021/10/14 09:54:12;;;;;;;9.13;4.18;;;;;;;11.64;100.00;101901.06;6273355;28;20037;-72
2021/10/14 09:57:15;;;;;;;6.55;3.70;;;;;;;11.60;100.00;101894.22;6273182;28;20574;-72
2021/10/14 10:00:18;;;;;;;12.45;6.13;;;;;;;11.59;100.00;101896.00;6272561;28;20041;-72
2021/10/14 10:03:21;;;;;;;10.20;4.88;;;;;;;11.59;100.00;101900.41;6278019;28;20055;-72
2021/10/14 10:06:25;;;;;;;7.25;4.03;;;;;;;11.64;100.00;101890.53;6299009;28;20048;-72
2021/10/14 10:09:31;;;;;;;8.43;4.28;;;;;;;11.74;100.00;101891.88;6298797;28;20040;-72
2021/10/14 10:12:34;;;;;;;8.80;4.25;;;;;;;11.71;100.00;101891.13;6298646;28;20411;-72
2021/10/14 10:15:40;;;;;;;11.35;3.55;;;;;;;11.79;100.00;101900.47;6280807;28;20480;-72
2021/10/14 10:18:42;;;;;;;6.63;4.22;;;;;;;11.77;100.00;101888.28;6273864;28;20147;-72
2021/10/14 10:21:45;;;;;;;11.60;4.05;;;;;;;11.82;100.00;101886.31;6273676;28;20048;-71
2021/10/14 10:24:46;;;;;;;8.68;4.20;;;;;;;11.90;100.00;101885.13;6273262;28;20056;-71
2021/10/14 10:27:49;;;;;;;8.75;3.80;;;;;;;11.92;100.00;101875.38;6273533;28;20424;-71
2021/10/14 10:30:53;;;;;;;11.95;5.18;;;;;;;11.94;100.00;101877.94;6273615;28;20072;-72
2021/10/14 10:33:59;;;;;;;10.52;4.68;;;;;;;12.01;100.00;101873.28;6273348;28;20052;-72
2021/10/14 10:37:11;;;;;;;14.05;4.70;;;;;;;12.04;100.00;101871.38;6273225;28;20138;-72
2021/10/14 10:40:16;;;;;;;8.13;4.40;;;;;;;12.08;100.00;101867.72;6272403;28;20044;-72
2021/10/14 10:43:22;;;;;;;9.57;4.43;;;;;;;12.06;100.00;101871.31;6273467;28;20191;-71
2021/10/14 10:46:28;;;;;;;12.52;4.15;;;;;;;12.06;100.00;101863.41;6273070;28;20052;-72
2021/10/14 10:49:30;;;;;;;8.93;4.13;;;;;;;12.01;100.00;101874.13;6273052;28;20052;-72
2021/10/14 10:52:32;;;;;;;7.55;3.63;;;;;;;12.07;100.00;101867.75;6273099;28;20053;-72
2021/10/14 10:55:36;;;;;;;9.38;4.03;;;;;;;12.08;100.00;101851.91;6272618;28;20049;-72
2021/10/14 10:58:49;;;;;;;9.80;4.30;;;;;;;12.10;100.00;101857.94;6272959;28;20048;-72
2021/10/14 11:01:50;;;;;;;8.80;3.83;;;;;;;12.21;100.00;101854.84;6272270;28;20106;-72
2021/10/14 11:04:52;;;;;;;9.25;4.30;;;;;;;12.29;100.00;101849.25;6272713;28;20059;-72
2021/10/14 11:08:05;;;;;;;10.68;4.65;;;;;;;12.29;100.00;101846.63;6271647;28;20045;-71
2021/10/14 11:11:10;;;;;;;7.03;4.07;;;;;;;12.31;100.00;101834.22;6272778;28;20447;-72
2021/10/14 11:14:13;;;;;;;9.50;4.60;;;;;;;12.35;100.00;101828.78;6272144;28;20045;-72
2021/10/14 11:17:15;;;;;;;7.65;4.50;;;;;;;12.46;100.00;101832.72;6272443;28;20059;-72
2021/10/14 11:20:16;;;;;;;10.57;4.53;;;;;;;12.49;100.00;101833.44;6272236;28;20045;-73
2021/10/14 11:23:18;;;;;;;7.60;4.25;;;;;;;12.48;100.00;101833.50;6272427;28;20060;-72
2021/10/14 11:26:23;;;;;;;9.05;4.88;;;;;;;12.53;100.00;101828.88;6271803;28;20113;-72
2021/10/14 11:29:29;;;;;;;9.15;4.35;;;;;;;12.57;100.00;101831.31;6271996;28;20072;-72
2021/10/14 11:32:43;;;;;;;9.07;4.72;;;;;;;12.65;100.00;101834.47;6272264;28;20084;-72
2021/10/14 11:35:56;;;;;;;11.95;4.80;;;;;;;12.61;100.00;101821.50;6271151;28;20045;-73
2021/10/14 11:39:01;;;;;;;9.82;4.22;;;;;;;12.65;100.00;101828.34;6271966;28;20075;-72
2021/10/14 11:42:06;;;;;;;13.23;4.15;;;;;;;12.73;100.00;101820.09;6272123;28;20053;-73
2021/10/14 11:45:09;;;;;;;8.32;3.80;;;;;;;12.66;100.00;101817.72;6271505;28;20055;-72
2021/10/14 11:48:32;;;;;;;6.15;3.72;;;;;;;12.61;100.00;101818.84;6272286;28;20059;-72
2021/10/14 11:51:33;;;;;;;8.30;3.92;;;;;;;12.67;100.00;101813.28;6271669;28;20120;-72
2021/10/14 11:54:36;;;;;;;8.68;3.78;;;;;;;12.74;100.00;101805.97;6271242;28;20053;-72
2021/10/14 11:57:38;;;;;;;10.10;3.65;;;;;;;12.74;100.00;101800.69;6271518;28;20053;-72
2021/10/14 12:00:41;;;;;;;5.03;3.40;;;;;;;12.83;100.00;101801.13;6270490;28;20052;-72
2021/10/14 12:03:43;;;;;;;7.68;3.97;;;;;;;12.75;100.00;101797.13;6271371;28;20053;-72
2021/10/14 12:06:45;;;;;;;6.90;3.05;;;;;;;12.78;100.00;101797.84;6271446;28;20060;-71
2021/10/14 12:09:47;;;;;;;8.60;3.80;;;;;;;12.78;100.00;101794.38;6271991;28;20467;-72
2021/10/14 12:13:01;;;;;;;7.68;2.63;;;;;;;12.74;100.00;101782.22;6270599;28;20404;-71
2021/10/14 12:16:09;;;;;;;7.70;3.53;;;;;;;12.68;100.00;101783.38;6271262;28;20053;-72
2021/10/14 12:19:15;;;;;;;8.95;3.65;;;;;;;12.72;100.00;101781.44;6271213;28;20056;-72
2021/10/14 12:22:18;;;;;;;5.15;2.80;;;;;;;12.59;100.00;101782.00;6271354;28;20080;-72
2021/10/14 12:25:25;;;;;;;6.22;3.22;;;;;;;12.59;100.00;101778.53;6270929;28;20055;-72
2021/10/14 12:28:26;;;;;;;6.88;3.65;;;;;;;12.60;100.00;101780.22;6270800;28;20048;-72
2021/10/14 12:31:31;;;;;;;6.85;3.28;;;;;;;12.58;100.00;101772.41;6271242;28;20041;-72
2021/10/14 12:34:47;;;;;;;5.00;2.95;;;;;;;12.63;100.00;101777.47;6271227;28;20411;-72
2021/10/14 12:37:49;;;;;;;10.75;3.50;;;;;;;12.72;100.00;101781.44;6271163;28;20508;-72
2021/10/14 12:41:01;;;;;;;5.20;3.20;;;;;;;12.74;100.00;101758.50;6271040;28;20502;-72
2021/10/14 12:44:08;;;;;;;6.63;3.45;;;;;;;12.77;100.00;101761.00;6270646;28;20053;-73
2021/10/14 12:47:31;;;;;;;7.55;3.83;;;;;;;12.85;100.00;101769.41;6271358;28;20056;-72
2021/10/14 12:50:54;;;;;;;7.90;3.53;;;;;;;12.84;100.00;101765.91;6270971;28;20116;-71
2021/10/14 12:53:59;;;;;;;7.50;4.03;;;;;;;12.76;100.00;101764.53;6269016;28;20400;-72
2021/10/14 12:57:02;;;;;;;6.85;3.63;;;;;;;12.78;100.00;101758.28;6268519;28;20526;-71
2021/10/14 13:00:05;;;;;;;8.82;3.90;;;;;;;12.77;100.00;101751.31;6268782;28;20048;-72
2021/10/14 13:03:08;;;;;;;6.93;3.90;;;;;;;12.87;100.00;101755.22;6270343;28;20094;-72
2021/10/14 13:06:09;;;;;;;6.68;3.83;;;;;;;13.06;100.00;101749.91;6270393;28;20053;-73
2021/10/14 13:09:10;;;;;;;5.18;3.13;;;;;;;13.09;100.00;101748.94;6270541;28;20056;-72
2021/10/14 13:12:12;;;;;;;8.77;4.05;;;;;;;13.20;100.00;101747.47;6270882;28;20056;-72
2021/10/14 13:15:13;;;;;;;10.38;4.25;;;;;;;13.24;100.00;101744.72;6270439;28;20057;-71
2021/10/14 13:18:16;;;;;;;8.98;3.78;;;;;;;13.19;100.00;101750.19;6270740;28;20045;-72
2021/10/14 13:21:18;;;;;;;7.03;3.50;;;;;;;13.19;100.00;101740.50;6270047;28;20052;-72
2021/10/14 13:24:19;;;;;;;7.35;4.20;;;;;;;13.18;100.00;101737.94;6272652;28;20053;-72
2021/10/14 13:27:21;;;;;;;11.20;4.47;;;;;;;13.13;100.00;101732.03;6274922;28;20060;-72
2021/10/14 13:30:22;;;;;;;9.60;4.47;;;;;;;13.10;100.00;101733.03;6275146;28;20155;-72
2021/10/14 13:33:26;;;;;;;7.47;3.63;;;;;;;13.09;100.00;101735.75;6274787;28;20049;-71
2021/10/14 13:36:28;;;;;;;7.45;3.60;;;;;;;12.98;100.00;101732.75;6274680;28;20166;-72
2021/10/14 13:39:29;;;;;;;7.50;3.30;;;;;;;12.99;100.00;101723.88;6274759;28;20612;-72
2021/10/14 13:42:34;;;;;;;7.68;3.72;;;;;;;13.06;100.00;101730.59;6274524;28;20496;-72
2021/10/14 13:45:35;;;;;;;7.78;3.75;;;;;;;13.04;100.00;101722.75;6274514;28;20052;-73
2021/10/14 13:48:38;;;;;;;9.23;3.58;;;;;;;13.17;100.00;101713.34;6274373;28;20045;-72
2021/10/14 13:51:40;;;;;;;7.28;3.97;;;;;;;13.10;100.00;101711.91;6273762;28;20415;-72
2021/10/14 13:54:41;;;;;;;5.05;2.83;;;;;;;13.21;100.00;101706.09;6274127;28;20049;-72
2021/10/14 13:57:43;;;;;;;7.68;3.97;;;;;;;13.18;100.00;101698.34;6274335;28;20053;-72
2021/10/14 14:00:45;;;;;;;7.53;3.70;;;;;;;13.19;100.00;101707.97;6274187;28;20511;-72